Titan — WDD7142 — position and weather

sailwx.info

Track history (hours):
 
Tides and Currents Weather Stations Pressure Air Temp Water Temp Dewpoint Dewpoint Depression Visibility Wind Speed Wind Dir Waves Ship Positions

Titan

Owner: Seabulk Towing Service,Inc, Groves, TX. More information available from US FCC via Universal Licensing System and Coast Guard Vessel Documentation Center.

Last reported at 2017-Nov-16 15:03 UTC. Time now 2017-Nov-18 06:47 UTC.
Position N 29°59' W 093°56'.

Length 32 m.

Type: Tug. MMSI: 366268050.

Date/timePositionNaut miles runAvg speedWind from/ knotsBaromVisibWave heightAir tempDewpointWater temp
2017-Nov-16 15:03N 29°59' W 093°56'0 0.0
2017-Nov-16 14:02N 29°59' W 093°56'0 0.0
2017-Nov-16 13:46N 29°59' W 093°56'0 0.0
2017-Nov-16 13:25N 29°59' W 093°56'0 0.0
2017-Nov-16 13:01N 29°59' W 093°56'0 0.0
2017-Nov-16 12:28N 29°59' W 093°56'0 0.0
2017-Nov-16 11:19N 29°59' W 093°56'0 0.0
2017-Nov-16 11:00N 29°59' W 093°56'0 0.0
2017-Nov-16 10:30N 29°59' W 093°56'0 0.0
2017-Nov-16 10:01N 29°59' W 093°56'0 0.0
2017-Nov-16 09:29N 29°59' W 093°56'1 2.8
2017-Nov-16 08:59N 29°59' W 093°54'1 2.3
2017-Nov-16 08:29N 29°59' W 093°53'3 5.2
2017-Nov-16 08:00N 29°59' W 093°56'0 0.0
2017-Nov-16 03:13N 29°59' W 093°56'0 0.0
2017-Nov-16 03:01N 29°59' W 093°56'3 0.2
2017-Nov-15 10:15N 29°59' W 093°52'2 7.1
2017-Nov-15 09:56N 29°57' W 093°52'  
2017-Nov-10 09:53N 29°52' W 093°56'  
2017-Nov-07 02:26N 30°01' W 094°01'  
Track history (hours):
 
Tides and Currents Weather Stations Pressure Air Temp Water Temp Dewpoint Dewpoint Depression Visibility Wind Speed Wind Dir Waves Ship Positions

Titan

Owner: Seabulk Towing Service,Inc, Groves, TX. More information available from US FCC via Universal Licensing System and Coast Guard Vessel Documentation Center.

Last reported at 2017-Nov-16 15:03 UTC. Time now 2017-Nov-18 06:47 UTC.
Position N 29°59' W 093°56'.

Length 32 m.

Type: Tug. MMSI: 366268050.

Date/timePositionNaut miles runAvg speedWind from/ knotsBaromVisibWave heightAir tempDewpointWater temp
2017-Nov-16 15:03N 29°59' W 093°56'0 0.0
2017-Nov-16 14:02N 29°59' W 093°56'0 0.0
2017-Nov-16 13:46N 29°59' W 093°56'0 0.0
2017-Nov-16 13:25N 29°59' W 093°56'0 0.0
2017-Nov-16 13:01N 29°59' W 093°56'0 0.0
2017-Nov-16 12:28N 29°59' W 093°56'0 0.0
2017-Nov-16 11:19N 29°59' W 093°56'0 0.0
2017-Nov-16 11:00N 29°59' W 093°56'0 0.0
2017-Nov-16 10:30N 29°59' W 093°56'0 0.0
2017-Nov-16 10:01N 29°59' W 093°56'0 0.0
2017-Nov-16 09:29N 29°59' W 093°56'1 2.8
2017-Nov-16 08:59N 29°59' W 093°54'1 2.3
2017-Nov-16 08:29N 29°59' W 093°53'3 5.2
2017-Nov-16 08:00N 29°59' W 093°56'0 0.0
2017-Nov-16 03:13N 29°59' W 093°56'0 0.0
2017-Nov-16 03:01N 29°59' W 093°56'3 0.2
2017-Nov-15 10:15N 29°59' W 093°52'2 7.1
2017-Nov-15 09:56N 29°57' W 093°52'  
2017-Nov-10 09:53N 29°52' W 093°56'  
2017-Nov-07 02:26N 30°01' W 094°01'  

Dump ship's entire track history